Time;durP1;ratioP1;P1;durP2;ratioP2;P2;SDS_P1;SDS_P2;PMS_P1;PMS_P2;Temp;Humidity;BMP_temperature;BMP_pressure;BME280_temperature;BME280_humidity;BME280_pressure;Samples;Min_cycle;Max_cycle;Signal;HPM_P1;HPM_P2
2021/06/11 00:00:14;;;;;;;6.63;3.47;;;;;;;21.10;52.42;100768.31;5028827;28;20517;-67
2021/06/11 00:02:41;;;;;;;7.40;3.17;;;;;;;21.06;52.72;100766.66;5028761;28;20033;-67
2021/06/11 00:05:09;;;;;;;6.20;3.35;;;;;;;21.14;52.44;100769.97;5028611;28;20033;-67
2021/06/11 00:07:36;;;;;;;6.25;3.60;;;;;;;21.20;52.25;100769.00;5029458;28;20064;-67
2021/06/11 00:10:07;;;;;;;6.57;3.42;;;;;;;21.23;51.88;100769.78;5027625;28;20155;-66
2021/06/11 00:12:34;;;;;;;6.07;3.47;;;;;;;21.16;52.19;100768.16;5029043;28;20048;-67
2021/06/11 00:15:01;;;;;;;5.40;3.05;;;;;;;21.07;52.19;100765.69;5028029;28;20073;-66
2021/06/11 00:17:28;;;;;;;5.28;2.95;;;;;;;21.06;52.61;100770.22;5028532;28;20064;-66
2021/06/11 00:19:55;;;;;;;6.22;3.50;;;;;;;21.09;52.43;100766.53;5027932;28;20042;-67
2021/06/11 00:22:23;;;;;;;6.93;3.13;;;;;;;20.83;52.98;100766.38;5028349;28;20125;-67
2021/06/11 00:24:50;;;;;;;6.88;3.63;;;;;;;20.55;53.47;100763.50;5029364;28;20037;-67
2021/06/11 00:27:18;;;;;;;6.05;3.22;;;;;;;20.51;53.76;100784.19;5028379;28;20061;-67
2021/06/11 00:29:45;;;;;;;9.95;3.67;;;;;;;20.41;53.99;100766.56;5028855;28;20485;-66
2021/06/11 00:32:12;;;;;;;6.97;3.35;;;;;;;20.45;54.11;100772.72;5028639;28;20096;-68
2021/06/11 00:34:39;;;;;;;4.75;3.17;;;;;;;20.41;53.85;100769.25;5025491;28;20140;-68
2021/06/11 00:37:07;;;;;;;5.07;3.35;;;;;;;20.41;54.06;100771.03;5032217;28;20042;-67
2021/06/11 00:39:34;;;;;;;5.32;3.47;;;;;;;20.53;53.76;100765.38;5033217;28;20088;-67
2021/06/11 00:42:03;;;;;;;4.88;3.10;;;;;;;20.69;53.25;100764.91;5031383;28;20040;-67
2021/06/11 00:44:32;;;;;;;7.18;3.45;;;;;;;20.76;53.17;100754.91;5032857;28;20039;-66
2021/06/11 00:46:59;;;;;;;7.22;3.40;;;;;;;20.76;53.12;100765.66;5033089;28;20037;-66
2021/06/11 00:49:26;;;;;;;4.90;3.13;;;;;;;20.75;53.05;100760.31;5033177;28;20129;-66
2021/06/11 00:51:54;;;;;;;6.72;3.40;;;;;;;20.78;53.01;100758.44;5032320;28;20128;-67
2021/06/11 00:54:21;;;;;;;6.22;3.40;;;;;;;20.75;53.11;100761.19;5032027;28;20117;-66
2021/06/11 00:56:49;;;;;;;6.22;3.38;;;;;;;20.71;52.94;100758.63;5032394;28;20092;-66
2021/06/11 00:59:17;;;;;;;5.05;3.25;;;;;;;20.43;53.53;100758.47;5032907;28;20133;-67
2021/06/11 01:01:46;;;;;;;4.68;2.90;;;;;;;20.44;53.69;100754.84;5031136;28;20041;-67
2021/06/11 01:04:13;;;;;;;5.90;3.58;;;;;;;20.42;53.69;100746.84;5032241;28;20045;-66
2021/06/11 01:06:43;;;;;;;5.97;3.42;;;;;;;20.45;53.42;100745.91;5032635;28;20069;-66
2021/06/11 01:09:12;;;;;;;7.55;3.53;;;;;;;20.50;53.66;100744.84;5030410;28;20128;-66
2021/06/11 01:11:42;;;;;;;4.53;3.00;;;;;;;20.48;53.67;100740.47;5031517;28;20124;-66
2021/06/11 01:14:10;;;;;;;8.80;3.50;;;;;;;20.51;53.50;100743.94;5030927;28;20049;-67
2021/06/11 01:16:38;;;;;;;5.80;3.20;;;;;;;20.52;53.72;100740.34;5031610;28;20119;-66
2021/06/11 01:19:10;;;;;;;5.75;3.13;;;;;;;20.39;53.93;100746.94;5032487;28;20044;-66
2021/06/11 01:21:46;;;;;;;5.30;3.10;;;;;;;20.23;54.50;100734.78;5032478;28;20048;-66
2021/06/11 01:24:19;;;;;;;6.10;3.35;;;;;;;20.04;54.79;100733.47;5030700;28;20558;-67
2021/06/11 01:26:50;;;;;;;8.10;3.80;;;;;;;20.03;55.22;100739.72;5031941;28;20179;-66
2021/06/11 01:29:20;;;;;;;7.25;4.00;;;;;;;20.19;54.82;100744.72;5031509;28;20037;-67
2021/06/11 01:31:52;;;;;;;7.53;3.58;;;;;;;20.16;54.73;100738.53;5032166;28;20045;-67
2021/06/11 01:34:23;;;;;;;4.53;2.92;;;;;;;20.05;54.98;100743.28;5032166;28;20034;-67
2021/06/11 01:36:54;;;;;;;4.70;3.22;;;;;;;20.05;55.15;100740.59;5031139;28;20048;-66
2021/06/11 01:39:23;;;;;;;6.45;3.80;;;;;;;20.07;55.00;100741.44;5031359;28;20456;-67
2021/06/11 01:41:53;;;;;;;6.93;3.72;;;;;;;20.18;54.83;100750.09;5031629;28;20051;-67
2021/06/11 01:44:21;;;;;;;5.55;3.42;;;;;;;20.27;54.72;100739.16;5031641;28;20052;-67
2021/06/11 01:46:50;;;;;;;6.45;3.75;;;;;;;20.32;54.77;100747.97;5031362;28;20510;-68
2021/06/11 01:49:19;;;;;;;5.68;3.70;;;;;;;20.31;54.55;100748.88;5031309;28;20068;-67
2021/06/11 01:51:47;;;;;;;5.57;3.97;;;;;;;20.30;54.97;100749.81;5031098;28;20030;-66
2021/06/11 01:54:14;;;;;;;7.88;3.90;;;;;;;20.29;55.11;100750.72;5030974;28;20056;-66
2021/06/11 01:56:43;;;;;;;6.90;3.63;;;;;;;20.28;55.25;100754.34;5031270;28;20041;-67
2021/06/11 01:59:12;;;;;;;6.00;3.72;;;;;;;20.25;55.19;100754.41;5031323;28;20065;-67
2021/06/11 02:01:41;;;;;;;8.98;4.10;;;;;;;20.22;55.41;100755.34;5031238;28;20080;-68
2021/06/11 02:04:09;;;;;;;6.05;3.53;;;;;;;20.22;55.40;100754.47;5031717;28;20042;-67
2021/06/11 02:06:37;;;;;;;6.07;3.83;;;;;;;20.23;55.55;100751.75;5031173;28;20489;-67
2021/06/11 02:09:05;;;;;;;6.45;3.78;;;;;;;20.24;55.69;100749.94;5030249;28;20124;-67
2021/06/11 02:11:33;;;;;;;9.65;4.05;;;;;;;20.22;55.75;100746.41;5030442;28;20057;-66
2021/06/11 02:14:01;;;;;;;5.85;3.88;;;;;;;20.21;55.59;100748.25;5030884;28;20124;-67
2021/06/11 02:16:31;;;;;;;8.20;4.80;;;;;;;20.22;55.86;100754.47;5031124;28;20378;-66
2021/06/11 02:19:00;;;;;;;7.28;4.10;;;;;;;20.21;55.85;100750.94;5030225;28;20116;-67
2021/06/11 02:21:28;;;;;;;7.30;3.78;;;;;;;20.25;55.90;100751.72;5031720;28;20386;-67
2021/06/11 02:23:56;;;;;;;6.47;3.90;;;;;;;20.21;56.04;100745.56;5031139;28;20125;-67
2021/06/11 02:26:24;;;;;;;7.60;4.57;;;;;;;20.22;55.96;100747.31;5030159;28;20065;-67
2021/06/11 02:28:51;;;;;;;10.35;4.20;;;;;;;20.23;56.02;100742.81;5030754;28;20045;-66
2021/06/11 02:31:18;;;;;;;6.97;3.97;;;;;;;20.25;55.85;100749.03;5030946;28;20049;-67
2021/06/11 02:33:47;;;;;;;5.93;4.00;;;;;;;20.25;56.04;100741.88;5030373;28;20055;-67
2021/06/11 02:36:15;;;;;;;6.95;4.43;;;;;;;20.22;56.21;100749.09;5030455;28;20061;-67
2021/06/11 02:38:42;;;;;;;8.52;3.92;;;;;;;20.19;56.41;100738.47;5030933;28;20076;-67
2021/06/11 02:41:14;;;;;;;7.28;3.95;;;;;;;20.18;56.49;100740.25;5030604;28;20494;-66
2021/06/11 02:43:42;;;;;;;7.05;3.92;;;;;;;20.18;56.61;100742.06;5030494;28;20033;-67
2021/06/11 02:46:16;;;;;;;7.25;3.85;;;;;;;20.21;56.44;100745.56;5030389;28;20107;-67
2021/06/11 02:48:50;;;;;;;5.88;3.90;;;;;;;20.20;56.65;100740.22;5030004;28;20216;-67
2021/06/11 02:51:24;;;;;;;8.30;4.10;;;;;;;20.21;56.54;100742.00;5030306;28;20057;-67
2021/06/11 02:53:53;;;;;;;7.00;4.45;;;;;;;20.17;56.65;100743.84;5029994;28;20117;-70
2021/06/11 02:56:23;;;;;;;7.20;4.60;;;;;;;20.12;56.89;100751.13;5030388;28;20041;-66
2021/06/11 02:58:54;;;;;;;7.03;4.22;;;;;;;20.19;56.75;100751.88;5030225;28;20462;-67
2021/06/11 03:01:22;;;;;;;8.52;4.60;;;;;;;20.19;56.79;100752.75;5028516;28;20127;-67
2021/06/11 03:03:52;;;;;;;9.38;5.15;;;;;;;20.20;56.66;100757.19;5030317;28;20525;-67
2021/06/11 03:06:22;;;;;;;6.40;4.20;;;;;;;20.22;56.65;100749.97;5030368;28;20056;-67
2021/06/11 03:08:51;;;;;;;5.68;4.25;;;;;;;20.25;56.71;100757.09;5029564;28;20485;-66
2021/06/11 03:11:25;;;;;;;6.10;3.83;;;;;;;20.23;56.66;100753.53;5029116;28;20049;-67
2021/06/11 03:13:53;;;;;;;6.70;4.32;;;;;;;20.25;56.79;100755.28;5030238;28;20045;-66
2021/06/11 03:16:20;;;;;;;7.05;4.40;;;;;;;20.26;56.80;100757.06;5029474;28;20047;-67
2021/06/11 03:18:55;;;;;;;9.00;4.55;;;;;;;20.34;56.71;100748.88;5029433;28;20042;-67
2021/06/11 03:21:24;;;;;;;7.20;4.40;;;;;;;20.39;56.61;100752.31;5029965;28;20419;-67
2021/06/11 03:23:56;;;;;;;8.30;4.28;;;;;;;20.49;56.63;100748.44;5029446;28;20044;-67
2021/06/11 03:26:31;;;;;;;7.28;4.30;;;;;;;20.59;56.49;100743.75;5029241;28;20045;-67
2021/06/11 03:29:02;;;;;;;5.05;3.45;;;;;;;20.66;56.47;100746.25;5029486;28;20061;-67
2021/06/11 03:31:33;;;;;;;8.32;3.88;;;;;;;20.75;56.27;100744.22;5009775;28;20701;-67
2021/06/11 03:34:07;;;;;;;6.03;3.90;;;;;;;20.89;56.18;100734.00;5008796;28;20088;-66
2021/06/11 03:36:38;;;;;;;5.93;3.83;;;;;;;21.03;56.11;100734.50;5017309;28;20033;-66
2021/06/11 03:39:08;;;;;;;6.18;3.90;;;;;;;21.16;56.21;100735.06;5029495;28;20560;-67
2021/06/11 03:41:38;;;;;;;8.52;3.85;;;;;;;21.25;56.13;100735.72;5028587;28;20046;-67
2021/06/11 03:44:09;;;;;;;8.20;4.28;;;;;;;21.32;56.29;100739.09;5029399;28;20565;-67
2021/06/11 03:46:40;;;;;;;7.68;3.38;;;;;;;21.43;56.41;100732.47;5029058;28;20075;-66
2021/06/11 03:49:10;;;;;;;9.35;3.95;;;;;;;21.60;56.17;100744.50;5029659;28;20120;-67
2021/06/11 03:51:40;;;;;;;6.22;3.38;;;;;;;21.76;56.08;100740.44;5028909;28;20052;-67
2021/06/11 03:54:08;;;;;;;9.63;3.60;;;;;;;21.94;55.62;100752.44;5029520;28;20124;-67
2021/06/11 03:56:38;;;;;;;6.03;3.38;;;;;;;22.11;55.24;100742.97;5027956;28;20136;-68
2021/06/11 03:59:08;;;;;;;6.53;3.42;;;;;;;22.30;55.19;100736.97;5028448;28;20053;-67
2021/06/11 04:01:41;;;;;;;9.63;3.65;;;;;;;22.53;54.48;100750.53;5028297;28;20041;-67
2021/06/11 04:04:10;;;;;;;10.38;3.90;;;;;;;22.68;54.44;100736.56;5028921;28;20079;-67
2021/06/11 04:06:39;;;;;;;5.38;3.50;;;;;;;22.82;54.25;100746.88;5028806;28;20125;-67
2021/06/11 04:09:09;;;;;;;6.60;3.40;;;;;;;22.96;54.13;100748.16;5028624;28;20172;-67
2021/06/11 04:11:42;;;;;;;5.90;3.55;;;;;;;23.19;53.63;100750.00;5028455;28;20101;-67
2021/06/11 04:14:14;;;;;;;7.93;3.00;;;;;;;23.40;53.38;100738.44;5029232;28;20052;-67
2021/06/11 04:16:47;;;;;;;6.00;3.47;;;;;;;23.60;53.16;100755.69;5026954;28;20041;-67
2021/06/11 04:19:20;;;;;;;6.65;3.67;;;;;;;23.80;52.88;100751.31;5026251;28;20594;-67
2021/06/11 04:21:50;;;;;;;4.68;3.30;;;;;;;24.01;52.70;100748.69;5027116;28;20065;-67
2021/06/11 04:24:18;;;;;;;7.10;3.80;;;;;;;24.19;52.20;100750.69;5028108;28;20046;-67
2021/06/11 04:26:47;;;;;;;5.45;2.72;;;;;;;24.42;51.45;100753.28;5029038;28;20036;-67
2021/06/11 04:29:16;;;;;;;5.50;3.00;;;;;;;24.62;50.86;100750.63;5028961;28;20141;-67
2021/06/11 04:31:44;;;;;;;7.93;2.90;;;;;;;24.83;50.42;100754.25;5028974;28;20034;-67
2021/06/11 04:34:16;;;;;;;6.13;3.55;;;;;;;25.05;49.53;100754.22;5028519;28;20048;-67
2021/06/11 04:36:46;;;;;;;4.80;2.97;;;;;;;25.28;49.33;100751.34;5029165;28;20034;-67
2021/06/11 04:39:13;;;;;;;5.45;3.25;;;;;;;25.56;48.69;100767.19;5028701;28;20051;-67
2021/06/11 04:41:41;;;;;;;7.20;3.40;;;;;;;25.90;48.45;100765.66;5029028;28;20136;-68
2021/06/11 04:44:09;;;;;;;6.10;3.00;;;;;;;26.16;48.25;100771.56;5028391;28;20091;-67
2021/06/11 04:46:36;;;;;;;6.75;3.15;;;;;;;26.49;47.37;100770.91;5028292;28;20137;-67
2021/06/11 04:49:05;;;;;;;6.43;2.90;;;;;;;26.80;46.36;100762.97;5028962;28;20042;-67
2021/06/11 04:51:32;;;;;;;3.88;2.72;;;;;;;27.09;45.51;100766.91;5025340;28;20442;-67
2021/06/11 04:54:01;;;;;;;3.55;3.03;;;;;;;27.33;44.78;100765.59;5022829;28;20069;-68
2021/06/11 04:56:29;;;;;;;8.10;3.00;;;;;;;27.61;43.95;100765.00;5020195;28;20042;-67
2021/06/11 04:58:58;;;;;;;4.68;2.85;;;;;;;27.97;43.43;100763.91;5003415;28;20590;-68
2021/06/11 05:01:25;;;;;;;4.97;2.65;;;;;;;28.31;42.80;100765.59;5023057;28;20087;-68
2021/06/11 05:03:52;;;;;;;7.38;2.70;;;;;;;28.59;41.88;100759.44;5028840;28;20042;-68
2021/06/11 05:06:20;;;;;;;3.42;2.70;;;;;;;28.82;41.24;100776.16;5028005;28;20061;-67
2021/06/11 05:08:47;;;;;;;4.72;2.35;;;;;;;29.13;40.13;100775.19;5026788;28;20045;-68
2021/06/11 05:11:17;;;;;;;5.63;2.88;;;;;;;29.39;39.28;100781.78;5008441;28;20044;-68
2021/06/11 05:13:44;;;;;;;3.17;2.33;;;;;;;29.55;38.73;100776.22;5008449;28;20038;-68
2021/06/11 05:16:11;;;;;;;4.38;2.70;;;;;;;29.74;38.09;100779.53;5006781;28;20092;-68
2021/06/11 05:18:38;;;;;;;7.38;2.85;;;;;;;30.00;37.14;100784.22;5009238;28;20034;-68
2021/06/11 05:21:06;;;;;;;4.53;2.50;;;;;;;30.20;36.68;100782.91;5008755;28;20524;-69
2021/06/11 05:23:33;;;;;;;6.13;2.75;;;;;;;30.31;36.61;100780.38;5011482;28;20057;-68
2021/06/11 05:26:00;;;;;;;5.85;2.40;;;;;;;30.64;36.19;100782.72;5011973;28;20037;-68
2021/06/11 05:28:29;;;;;;;5.53;2.40;;;;;;;30.83;35.57;100782.34;5011115;28;20049;-68
2021/06/11 05:30:57;;;;;;;3.22;2.60;;;;;;;31.11;35.21;100781.38;5012473;28;20096;-69
2021/06/11 05:33:24;;;;;;;5.40;2.30;;;;;;;31.30;34.86;100779.09;5027664;28;20072;-68
2021/06/11 05:35:52;;;;;;;3.92;2.40;;;;;;;31.53;34.91;100781.06;5018834;28;20041;-68
2021/06/11 05:38:20;;;;;;;3.72;2.55;;;;;;;31.73;34.77;100787.84;5025012;28;20034;-67
2021/06/11 05:40:47;;;;;;;5.20;2.45;;;;;;;32.02;34.03;100793.94;5025475;28;20375;-67
2021/06/11 05:43:14;;;;;;;5.63;2.13;;;;;;;32.24;33.77;100798.69;5020365;28;20037;-67
2021/06/11 05:45:43;;;;;;;3.95;1.90;;;;;;;32.45;33.01;100800.72;5031687;28;20037;-67
2021/06/11 05:48:11;;;;;;;2.85;2.15;;;;;;;32.55;33.02;100794.56;5031800;28;20121;-67
2021/06/11 05:50:39;;;;;;;3.97;1.83;;;;;;;32.65;32.49;100804.69;5028183;28;20072;-67
2021/06/11 05:53:07;;;;;;;2.35;1.83;;;;;;;32.69;32.60;100802.63;5025179;28;20041;-67
2021/06/11 05:55:35;;;;;;;6.15;1.92;;;;;;;32.75;31.76;100799.44;5026123;28;20173;-67
2021/06/11 05:58:02;;;;;;;4.55;2.40;;;;;;;32.74;31.64;100806.75;5027215;28;20124;-67
2021/06/11 06:00:29;;;;;;;3.33;2.00;;;;;;;32.74;31.60;100804.03;5025773;28;20465;-67
2021/06/11 06:02:58;;;;;;;4.55;1.75;;;;;;;32.86;31.22;100804.94;5014811;28;20056;-67
2021/06/11 06:05:25;;;;;;;3.00;1.73;;;;;;;32.95;31.05;100814.31;5026834;28;20587;-68
2021/06/11 06:07:52;;;;;;;3.85;1.95;;;;;;;32.86;31.36;100813.16;5030697;28;20045;-68
2021/06/11 06:10:19;;;;;;;2.80;2.00;;;;;;;32.82;31.19;100823.44;5022854;28;20478;-68
2021/06/11 06:12:46;;;;;;;3.58;1.63;;;;;;;32.72;30.52;100813.31;5015164;28;20087;-68
2021/06/11 06:15:13;;;;;;;4.22;1.90;;;;;;;32.79;31.22;100820.97;5009439;28;20046;-68
2021/06/11 06:17:40;;;;;;;5.60;2.55;;;;;;;32.87;30.92;100817.63;5009871;28;20057;-68
2021/06/11 06:20:12;;;;;;;4.05;2.13;;;;;;;32.96;30.81;100816.03;5028849;28;20071;-68
2021/06/11 06:22:39;;;;;;;4.55;2.25;;;;;;;33.04;30.58;100813.59;5030745;28;20037;-68
2021/06/11 06:25:07;;;;;;;5.80;1.90;;;;;;;33.16;30.69;100815.38;5025848;28;20042;-68
2021/06/11 06:27:36;;;;;;;2.65;1.90;;;;;;;33.20;30.60;100815.06;5023724;28;20144;-68
2021/06/11 06:30:06;;;;;;;5.80;2.60;;;;;;;33.07;30.67;100819.72;5024929;28;20103;-68
2021/06/11 06:32:33;;;;;;;4.85;1.90;;;;;;;32.99;30.88;100808.47;5015698;28;20135;-68
2021/06/11 06:35:01;;;;;;;5.78;2.13;;;;;;;33.12;30.65;100820.22;5011455;28;20061;-68
2021/06/11 06:37:30;;;;;;;4.32;2.25;;;;;;;33.38;30.27;100814.59;5029368;28;20053;-68
2021/06/11 06:39:57;;;;;;;4.15;1.90;;;;;;;33.47;30.36;100817.50;5021470;28;20120;-66
2021/06/11 06:42:24;;;;;;;2.75;1.60;;;;;;;33.65;30.15;100812.41;5023433;28;20129;-66
2021/06/11 06:44:51;;;;;;;7.10;1.90;;;;;;;33.58;30.36;100813.91;5012133;28;20034;-67
2021/06/11 06:47:19;;;;;;;4.00;1.80;;;;;;;33.63;30.11;100808.91;5011701;28;20129;-66
2021/06/11 06:49:46;;;;;;;2.75;1.65;;;;;;;33.68;29.75;100819.50;5028894;28;20042;-67
2021/06/11 06:52:14;;;;;;;2.47;1.58;;;;;;;33.66;29.67;100816.91;5019817;28;20046;-66
2021/06/11 06:54:43;;;;;;;2.42;1.80;;;;;;;33.61;29.19;100820.00;5004231;28;20034;-66
2021/06/11 06:57:11;;;;;;;3.65;2.10;;;;;;;33.44;29.62;100812.25;5023753;28;20042;-66
2021/06/11 06:59:38;;;;;;;4.75;2.00;;;;;;;33.38;29.48;100814.59;5016012;28;20061;-66
2021/06/11 07:02:05;;;;;;;3.03;1.58;;;;;;;33.49;29.33;100814.63;5021356;28;20046;-66
2021/06/11 07:04:33;;;;;;;6.70;1.95;;;;;;;33.61;29.21;100816.38;5025841;28;20555;-66
2021/06/11 07:06:59;;;;;;;2.70;1.77;;;;;;;33.70;29.01;100817.53;5029769;28;20033;-66
2021/06/11 07:09:28;;;;;;;5.32;1.77;;;;;;;33.79;28.68;100820.44;5023040;28;20505;-68
2021/06/11 07:11:56;;;;;;;5.05;1.67;;;;;;;33.86;28.70;100818.94;5012645;28;20045;-67
2021/06/11 07:14:26;;;;;;;3.13;1.50;;;;;;;33.73;28.54;100822.81;5020052;28;20117;-67
2021/06/11 07:16:53;;;;;;;3.17;1.65;;;;;;;33.83;28.13;100816.44;5023507;28;20045;-67
2021/06/11 07:19:21;;;;;;;3.15;1.80;;;;;;;33.82;28.68;100822.91;5025260;28;20049;-67
2021/06/11 07:21:48;;;;;;;4.07;2.05;;;;;;;33.84;29.05;100820.06;5028104;28;20033;-67
2021/06/11 07:24:15;;;;;;;5.38;2.55;;;;;;;33.74;28.89;100813.59;5026693;28;20041;-67
2021/06/11 07:26:42;;;;;;;4.03;1.90;;;;;;;33.71;29.49;100822.91;5026764;28;20061;-67
2021/06/11 07:29:11;;;;;;;5.53;2.20;;;;;;;33.97;29.09;100816.19;5017130;28;20056;-67
2021/06/11 07:31:38;;;;;;;3.85;2.08;;;;;;;34.13;29.24;100823.19;5025479;28;20461;-67
2021/06/11 07:34:05;;;;;;;4.05;1.70;;;;;;;34.33;28.62;100830.69;5024712;28;20132;-66
2021/06/11 07:36:32;;;;;;;2.40;1.67;;;;;;;34.24;28.30;100828.69;5027846;28;20030;-67
2021/06/11 07:38:59;;;;;;;11.38;2.33;;;;;;;34.31;28.04;100828.06;5026007;28;20107;-67
2021/06/11 07:41:26;;;;;;;2.47;1.98;;;;;;;34.31;28.30;100827.19;5023259;28;20405;-67
2021/06/11 07:43:54;;;;;;;3.75;1.95;;;;;;;34.45;28.39;100831.53;5025199;28;20401;-66
2021/06/11 07:46:23;;;;;;;4.85;2.08;;;;;;;34.60;27.78;100830.22;5001808;28;20054;-67
2021/06/11 07:48:50;;;;;;;2.92;1.90;;;;;;;34.48;27.96;100839.47;5028237;28;20047;-67
2021/06/11 07:51:17;;;;;;;2.67;1.80;;;;;;;34.51;28.08;100837.38;5022027;28;20072;-67
2021/06/11 07:53:44;;;;;;;5.13;1.83;;;;;;;34.59;27.57;100831.25;4991717;28;20455;-67
2021/06/11 07:56:12;;;;;;;5.13;1.98;;;;;;;34.58;27.74;100837.72;4995045;28;20129;-67
2021/06/11 07:58:39;;;;;;;4.10;2.17;;;;;;;34.49;27.54;100831.13;5008288;28;20129;-67
2021/06/11 08:01:06;;;;;;;7.05;2.03;;;;;;;34.54;27.72;100837.09;5015904;28;20069;-68
2021/06/11 08:03:35;;;;;;;3.03;1.55;;;;;;;34.64;27.36;100835.34;5024553;28;20132;-67
2021/06/11 08:06:01;;;;;;;4.13;1.60;;;;;;;34.35;27.55;100831.41;5029556;28;20064;-67
2021/06/11 08:08:28;;;;;;;4.20;1.70;;;;;;;34.11;28.00;100834.25;5024779;28;20446;-67
2021/06/11 08:10:55;;;;;;;3.65;1.90;;;;;;;34.27;27.66;100825.66;5023306;28;20053;-67
2021/06/11 08:13:23;;;;;;;5.65;2.03;;;;;;;34.25;27.98;100835.91;5027349;28;20048;-67
2021/06/11 08:15:50;;;;;;;3.58;1.98;;;;;;;34.24;27.99;100831.44;5029489;28;20484;-67
2021/06/11 08:18:17;;;;;;;2.55;1.73;;;;;;;34.10;27.55;100831.66;5019343;28;20444;-67
2021/06/11 08:20:45;;;;;;;2.78;2.00;;;;;;;33.48;28.52;100830.19;5011118;28;20038;-68
2021/06/11 08:23:12;;;;;;;2.08;1.60;;;;;;;33.00;28.79;100823.91;5027202;28;20045;-67
2021/06/11 08:25:40;;;;;;;3.85;2.00;;;;;;;32.85;29.12;100830.56;5000849;28;20538;-67
2021/06/11 08:28:07;;;;;;;4.95;2.00;;;;;;;33.29;28.79;100831.75;5008500;28;20042;-67
2021/06/11 08:30:34;;;;;;;3.30;1.90;;;;;;;33.56;28.66;100826.84;5018188;28;20045;-68
2021/06/11 08:33:01;;;;;;;5.00;1.85;;;;;;;33.78;27.89;100826.91;5023666;28;20138;-67
2021/06/11 08:35:30;;;;;;;5.38;2.03;;;;;;;33.69;28.21;100843.16;5027330;28;20284;-67
2021/06/11 08:37:58;;;;;;;3.08;1.77;;;;;;;32.96;28.63;100833.31;5007179;28;20049;-67
2021/06/11 08:40:26;;;;;;;3.28;1.90;;;;;;;32.58;29.08;100835.34;5016954;28;20092;-67
2021/06/11 08:42:54;;;;;;;2.65;2.03;;;;;;;32.41;29.04;100833.88;5028350;28;20041;-68
2021/06/11 08:45:21;;;;;;;6.15;1.80;;;;;;;32.56;29.45;100840.06;5020187;28;20468;-67
2021/06/11 08:47:50;;;;;;;4.47;2.80;;;;;;;33.04;28.99;100846.44;5024533;28;20042;-68
2021/06/11 08:50:20;;;;;;;4.40;1.85;;;;;;;33.26;28.75;100851.16;5020992;28;20111;-67
2021/06/11 08:52:47;;;;;;;3.00;1.85;;;;;;;33.39;28.38;100850.09;5023797;28;20036;-67
2021/06/11 08:55:17;;;;;;;4.72;2.05;;;;;;;33.03;29.01;100845.56;5013700;28;20133;-67
2021/06/11 08:57:44;;;;;;;3.22;1.90;;;;;;;32.84;29.00;100845.22;5030628;28;20128;-67
2021/06/11 09:00:12;;;;;;;4.55;2.08;;;;;;;32.44;29.81;100848.19;5016568;28;20084;-66
2021/06/11 09:03:10;;;;;;;5.82;2.10;;;;;;;32.95;29.91;100858.09;5030061;28;20095;-67
2021/06/11 09:05:38;;;;;;;3.63;2.10;;;;;;;32.91;30.40;100846.50;5025408;28;20690;-66
2021/06/11 09:08:14;;;;;;;5.63;2.25;;;;;;;32.87;30.51;100845.00;5014565;28;20129;-66
2021/06/11 09:10:43;;;;;;;4.50;2.17;;;;;;;32.62;31.58;100858.75;5021242;28;20505;-66
2021/06/11 09:13:22;;;;;;;3.38;2.10;;;;;;;32.51;31.96;100859.53;5022516;28;20045;-66
2021/06/11 09:15:50;;;;;;;3.75;2.42;;;;;;;31.90;33.19;100857.66;5048908;28;20037;-66
2021/06/11 09:18:22;;;;;;;4.03;2.30;;;;;;;32.08;33.45;100856.31;5024948;28;20409;-66
2021/06/11 09:20:50;;;;;;;4.15;2.05;;;;;;;32.10;32.95;100854.34;5015026;28;20026;-66
2021/06/11 09:23:18;;;;;;;4.55;2.30;;;;;;;32.17;32.55;100860.25;5029841;28;20141;-66
2021/06/11 09:25:49;;;;;;;3.13;2.05;;;;;;;32.13;32.53;100865.06;5031672;28;20034;-66
2021/06/11 09:28:17;;;;;;;4.47;2.40;;;;;;;32.15;32.29;100862.25;5021472;28;20466;-66
2021/06/11 09:30:53;;;;;;;2.78;2.30;;;;;;;32.26;31.15;100868.69;5026052;28;20553;-66
2021/06/11 09:33:22;;;;;;;3.88;2.10;;;;;;;32.26;31.57;100865.06;5026172;28;20040;-66
2021/06/11 09:35:52;;;;;;;3.28;1.98;;;;;;;32.44;30.93;100867.31;5015484;28;20124;-67
2021/06/11 09:38:22;;;;;;;4.05;2.00;;;;;;;32.61;31.16;100866.06;5029314;28;20090;-66
2021/06/11 09:41:07;;;;;;;4.43;2.20;;;;;;;32.65;31.39;100877.66;5023733;28;20065;-66
2021/06/11 09:43:34;;;;;;;4.38;2.33;;;;;;;32.17;31.91;100872.06;5023886;28;20044;-67
2021/06/11 09:46:04;;;;;;;7.05;2.40;;;;;;;32.18;32.17;100868.34;5006724;28;20151;-66
2021/06/11 09:48:44;;;;;;;4.60;2.72;;;;;;;32.38;33.35;100864.16;5007540;28;20034;-66
2021/06/11 09:51:18;;;;;;;4.40;2.42;;;;;;;32.27;33.51;100875.00;5012651;28;20061;-67
2021/06/11 09:53:45;;;;;;;3.22;2.25;;;;;;;32.61;33.07;100873.41;5011336;28;20049;-67
2021/06/11 09:56:21;;;;;;;4.88;2.70;;;;;;;32.27;34.02;100875.00;5028888;28;20589;-66
2021/06/11 09:58:49;;;;;;;3.17;2.42;;;;;;;31.46;35.42;100866.22;5016117;28;20505;-67
2021/06/11 10:01:17;;;;;;;4.80;2.80;;;;;;;31.22;36.54;100877.84;5017765;28;20038;-66
2021/06/11 10:03:45;;;;;;;4.63;2.88;;;;;;;31.01;37.39;100879.28;5004201;28;20304;-67
2021/06/11 10:06:14;;;;;;;4.78;2.85;;;;;;;30.89;37.41;100867.34;5018196;28;20057;-67
2021/06/11 10:08:42;;;;;;;7.40;3.10;;;;;;;30.93;36.73;100872.56;5003903;28;20046;-67
2021/06/11 10:11:11;;;;;;;5.57;2.92;;;;;;;30.80;37.21;100875.25;5010999;28;20123;-66
2021/06/11 10:13:41;;;;;;;3.88;2.47;;;;;;;30.93;35.93;100868.00;5028057;28;20076;-67
2021/06/11 10:16:09;;;;;;;4.00;2.47;;;;;;;30.97;35.74;100871.41;5017299;28;20060;-67
2021/06/11 10:18:36;;;;;;;7.53;2.50;;;;;;;30.96;35.57;100870.53;5010125;28;20117;-67
2021/06/11 10:21:05;;;;;;;5.60;2.60;;;;;;;30.91;35.20;100867.25;5021173;28;20388;-66
2021/06/11 10:23:33;;;;;;;5.72;2.97;;;;;;;30.85;35.52;100870.41;5010928;28;20121;-66
2021/06/11 10:26:02;;;;;;;3.60;2.75;;;;;;;30.87;35.46;100862.97;5019584;28;20045;-65
2021/06/11 10:28:32;;;;;;;5.13;3.13;;;;;;;30.82;35.71;100874.19;5024483;28;20045;-66
2021/06/11 10:31:03;;;;;;;5.03;2.75;;;;;;;30.73;35.27;100882.97;5029006;28;20045;-66
2021/06/11 10:33:59;;;;;;;5.05;2.85;;;;;;;30.92;34.99;100870.84;5024381;28;20064;-66
2021/06/11 10:36:38;;;;;;;6.32;2.85;;;;;;;31.08;34.80;100874.31;5015375;28;20050;-65
2021/06/11 10:39:27;;;;;;;5.50;3.30;;;;;;;31.33;34.63;100884.41;5027582;28;20091;-66
2021/06/11 10:41:57;;;;;;;5.10;2.95;;;;;;;31.45;34.26;100894.47;4999158;28;20044;-65
2021/06/11 10:44:32;;;;;;;7.40;3.00;;;;;;;31.59;34.19;100887.13;4990390;28;20058;-65
2021/06/11 10:47:26;;;;;;;8.05;2.95;;;;;;;31.68;35.50;100882.88;5016355;28;20045;-66
2021/06/11 10:50:13;;;;;;;4.97;3.50;;;;;;;30.77;38.31;100890.00;5015062;28;20513;-66
2021/06/11 10:52:48;;;;;;;5.35;3.28;;;;;;;30.91;38.35;100891.81;5024216;28;20566;-65
2021/06/11 10:55:49;;;;;;;;;;;;;;;31.39;37.65;100878.53;5025933;28;20045;-65
2021/06/11 10:58:32;;;;;;;5.78;2.97;;;;;;;31.87;35.87;100883.31;5028771;28;19921;-65
2021/06/11 11:01:00;;;;;;;6.45;3.60;;;;;;;31.85;36.46;100887.13;5024200;28;20129;-65
2021/06/11 11:03:32;;;;;;;5.00;3.03;;;;;;;31.55;37.83;100887.41;5025703;28;20119;-64
2021/06/11 11:06:19;;;;;;;6.55;3.30;;;;;;;31.40;38.06;100883.88;5028344;28;20124;-66
2021/06/11 11:08:53;;;;;;;5.10;3.30;;;;;;;31.29;37.52;100889.22;5022893;28;20034;-65
2021/06/11 11:11:32;;;;;;;4.47;2.60;;;;;;;31.88;36.07;100878.75;5029771;28;20042;-65
2021/06/11 11:14:01;;;;;;;4.63;2.78;;;;;;;32.25;34.93;100880.59;5025132;28;20041;-65
2021/06/11 11:16:34;;;;;;;4.72;2.70;;;;;;;32.12;34.99;100878.81;5030113;28;20125;-65
2021/06/11 11:19:03;;;;;;;3.87;2.80;;;;;;;32.02;35.30;100884.97;5025475;28;20042;-65
2021/06/11 11:21:34;;;;;;;5.57;2.83;;;;;;;31.91;35.25;100879.38;5017771;28;20041;-66
2021/06/11 11:24:04;;;;;;;4.70;2.58;;;;;;;32.27;34.81;100878.63;5025161;28;20084;-65
2021/06/11 11:26:43;;;;;;;3.35;2.10;;;;;;;33.02;32.64;100875.75;5029911;28;20401;-66
2021/06/11 11:29:12;;;;;;;5.88;2.63;;;;;;;33.26;32.65;100879.41;5016305;28;20333;-66
2021/06/11 11:31:40;;;;;;;5.22;2.78;;;;;;;33.25;33.24;100865.84;5029330;28;20045;-66
2021/06/11 11:34:09;;;;;;;6.90;2.70;;;;;;;32.94;33.60;100862.69;5028164;28;20041;-66